createdAt,value
2023-05-20T00:00:50.469Z,9.10
2023-05-20T00:03:17.581Z,8.97
2023-05-20T00:05:44.553Z,10.30
2023-05-20T00:08:11.196Z,12.60
2023-05-20T00:10:38.321Z,10.75
2023-05-20T00:13:06.507Z,9.45
2023-05-20T00:15:34.365Z,9.80
2023-05-20T00:18:01.932Z,10.10
2023-05-20T00:20:28.899Z,10.02
2023-05-20T00:22:55.495Z,10.73
2023-05-20T00:25:22.160Z,9.63
2023-05-20T00:27:48.737Z,10.63
2023-05-20T00:30:15.267Z,10.05
2023-05-20T00:32:41.783Z,10.93
2023-05-20T00:35:09.302Z,11.45
2023-05-20T00:37:35.764Z,11.52
2023-05-20T00:40:02.197Z,9.53
2023-05-20T00:42:29.224Z,11.43
2023-05-20T00:44:56.513Z,10.13
2023-05-20T00:47:29.595Z,10.23
2023-05-20T00:49:56.506Z,10.07
2023-05-20T00:52:23.197Z,11.83
2023-05-20T00:54:50.831Z,10.15
2023-05-20T00:57:17.439Z,10.70
2023-05-20T00:59:44.864Z,9.73
2023-05-20T01:02:11.827Z,11.35
2023-05-20T01:04:38.487Z,11.83
2023-05-20T01:07:06.481Z,10.07
2023-05-20T01:09:33.520Z,11.90
2023-05-20T01:12:09.837Z,10.88
2023-05-20T01:14:47.244Z,10.40
2023-05-20T01:17:17.854Z,10.90
2023-05-20T01:19:49.057Z,10.10
2023-05-20T01:22:16.263Z,10.75
2023-05-20T01:24:44.532Z,10.82
2023-05-20T01:27:13.527Z,12.55
2023-05-20T01:29:42.167Z,11.77
2023-05-20T01:32:22.321Z,9.70
2023-05-20T01:34:51.074Z,10.98
2023-05-20T01:37:19.503Z,10.20
2023-05-20T01:39:46.835Z,10.98
2023-05-20T01:42:15.457Z,11.70
2023-05-20T01:44:41.976Z,13.20
2023-05-20T01:47:08.480Z,11.00
2023-05-20T01:49:35.034Z,11.32
2023-05-20T01:52:01.632Z,13.02
2023-05-20T01:54:28.063Z,12.00
2023-05-20T01:56:54.501Z,11.35
2023-05-20T01:59:20.967Z,11.90
2023-05-20T02:01:47.704Z,9.13
2023-05-20T02:04:14.528Z,9.80
2023-05-20T02:06:41.071Z,11.33
2023-05-20T02:09:07.578Z,9.70
2023-05-20T02:11:34.020Z,9.40
2023-05-20T02:14:00.935Z,11.35
2023-05-20T02:16:27.414Z,9.50
2023-05-20T02:18:53.951Z,12.47
2023-05-20T02:21:20.834Z,9.27
2023-05-20T02:23:47.288Z,10.60
2023-05-20T02:26:13.929Z,10.23
2023-05-20T02:28:44.859Z,9.90
2023-05-20T02:31:11.275Z,9.10
2023-05-20T02:33:37.796Z,11.50
2023-05-20T02:36:04.885Z,9.73
2023-05-20T02:38:32.350Z,12.60
2023-05-20T02:40:59.901Z,9.95
2023-05-20T02:43:26.425Z,11.93
2023-05-20T02:45:52.963Z,12.40
2023-05-20T02:48:19.466Z,11.85
2023-05-20T02:50:47.013Z,11.07
2023-05-20T02:53:13.474Z,11.57
2023-05-20T02:55:40.815Z,11.77
2023-05-20T02:58:07.231Z,9.00
2023-05-20T03:00:40.678Z,10.02
2023-05-20T03:03:08.172Z,11.43
2023-05-20T03:05:37.948Z,10.48
2023-05-20T03:08:10.888Z,12.77
2023-05-20T03:10:40.140Z,10.88
2023-05-20T03:13:08.837Z,9.93
2023-05-20T03:15:36.147Z,8.15
2023-05-20T03:18:03.207Z,12.57
2023-05-20T03:20:30.258Z,9.73
2023-05-20T03:22:57.082Z,10.00
2023-05-20T03:25:24.510Z,9.25
2023-05-20T03:27:50.918Z,11.10
2023-05-20T03:30:17.818Z,11.75
2023-05-20T03:32:44.477Z,9.33
2023-05-20T03:35:11.018Z,8.93
2023-05-20T03:37:37.578Z,8.88
2023-05-20T03:40:07.530Z,12.02
2023-05-20T03:42:34.588Z,9.93
2023-05-20T03:45:01.157Z,9.40
2023-05-20T03:47:28.219Z,9.23
2023-05-20T03:49:54.902Z,9.88
2023-05-20T03:52:21.620Z,8.80
2023-05-20T03:54:48.566Z,10.68
2023-05-20T03:57:15.066Z,8.43
2023-05-20T03:59:41.851Z,8.52
2023-05-20T04:02:09.729Z,9.40
2023-05-20T04:04:36.315Z,11.48
2023-05-20T04:07:05.642Z,10.55
2023-05-20T04:09:32.086Z,11.40
2023-05-20T04:11:58.639Z,9.23
2023-05-20T04:14:25.121Z,9.98
2023-05-20T04:16:52.489Z,10.02
2023-05-20T04:19:21.961Z,11.90
2023-05-20T04:21:48.495Z,9.93
2023-05-20T04:24:14.991Z,11.77
2023-05-20T04:26:41.469Z,10.38
2023-05-20T04:29:07.907Z,8.88
2023-05-20T04:31:34.490Z,8.90
2023-05-20T04:34:00.981Z,12.77
2023-05-20T04:36:30.104Z,10.82
2023-05-20T04:38:57.216Z,10.27
2023-05-20T04:41:24.208Z,10.07
2023-05-20T04:43:50.793Z,9.80
2023-05-20T04:46:17.368Z,11.53
2023-05-20T04:48:43.993Z,10.60
2023-05-20T04:51:11.000Z,8.45
2023-05-20T04:53:38.161Z,10.05
2023-05-20T04:56:05.742Z,10.63
2023-05-20T04:58:33.537Z,9.93
2023-05-20T05:01:00.132Z,8.60
2023-05-20T05:03:26.654Z,9.68
2023-05-20T05:05:56.751Z,10.60
2023-05-20T05:08:23.173Z,8.65
2023-05-20T05:10:49.615Z,9.47
2023-05-20T05:13:16.176Z,12.18
2023-05-20T05:15:42.707Z,8.07
2023-05-20T05:18:09.583Z,8.00
2023-05-20T05:20:36.494Z,9.38
2023-05-20T05:23:03.176Z,9.33
2023-05-20T05:25:29.611Z,9.75
2023-05-20T05:27:56.142Z,12.73
2023-05-20T05:30:22.622Z,12.57
2023-05-20T05:32:49.177Z,11.80
2023-05-20T05:35:15.696Z,7.73
2023-05-20T05:37:42.151Z,8.88
2023-05-20T05:40:09.163Z,9.98
2023-05-20T05:42:35.682Z,7.97
2023-05-20T05:45:02.330Z,11.50
2023-05-20T05:47:32.458Z,8.00
2023-05-20T05:50:00.081Z,10.80
2023-05-20T05:52:27.145Z,9.43
2023-05-20T05:54:54.539Z,8.80
2023-05-20T05:57:20.965Z,8.38
2023-05-20T05:59:47.387Z,8.80
2023-05-20T06:02:14.829Z,10.25
2023-05-20T06:04:41.687Z,9.68
2023-05-20T06:07:08.406Z,10.20
2023-05-20T06:09:35.144Z,8.50
2023-05-20T06:12:02.466Z,11.37
2023-05-20T06:14:29.032Z,9.75
2023-05-20T06:16:55.539Z,8.30
2023-05-20T06:19:22.128Z,10.82
2023-05-20T06:21:48.682Z,9.52
2023-05-20T06:24:16.048Z,11.03
2023-05-20T06:26:42.704Z,7.38
2023-05-20T06:29:09.161Z,11.05
2023-05-20T06:31:35.723Z,7.25
2023-05-20T06:34:02.207Z,9.90
2023-05-20T06:36:29.518Z,7.20
2023-05-20T06:38:56.680Z,9.98
2023-05-20T06:41:23.095Z,9.68
2023-05-20T06:43:51.814Z,7.72
2023-05-20T06:46:19.644Z,10.68
2023-05-20T06:48:46.142Z,10.13
2023-05-20T06:51:12.611Z,7.35
2023-05-20T06:53:39.030Z,8.43
2023-05-20T06:56:05.902Z,8.27
2023-05-20T06:58:32.802Z,6.30
2023-05-20T07:00:59.243Z,10.50
2023-05-20T07:03:25.841Z,8.40
2023-05-20T07:05:52.910Z,8.50
2023-05-20T07:08:19.354Z,8.90
2023-05-20T07:10:46.663Z,7.10
2023-05-20T07:13:13.114Z,9.43
2023-05-20T07:15:39.603Z,7.97
2023-05-20T07:18:06.129Z,8.30
2023-05-20T07:20:32.658Z,7.72
2023-05-20T07:22:59.099Z,6.65
2023-05-20T07:25:25.602Z,5.33
2023-05-20T07:27:52.122Z,8.10
2023-05-20T07:30:18.584Z,7.50
2023-05-20T07:32:45.069Z,7.15
2023-05-20T07:35:11.538Z,7.63
2023-05-20T07:37:38.031Z,7.07
2023-05-20T07:40:05.524Z,8.55
2023-05-20T07:42:31.952Z,8.07
2023-05-20T07:44:58.381Z,8.25
2023-05-20T07:47:24.816Z,6.80
2023-05-20T07:49:51.512Z,6.70
2023-05-20T07:52:18.010Z,9.02
2023-05-20T07:54:44.465Z,7.82
2023-05-20T07:57:11.002Z,6.70
2023-05-20T07:59:37.450Z,6.57
2023-05-20T08:02:04.006Z,5.77
2023-05-20T08:04:30.634Z,6.55
2023-05-20T08:06:57.206Z,5.63
2023-05-20T08:09:23.622Z,7.38
2023-05-20T08:11:50.070Z,6.38
2023-05-20T08:14:16.621Z,7.10
2023-05-20T08:16:43.957Z,5.18
2023-05-20T08:19:10.698Z,11.52
2023-05-20T08:21:37.427Z,6.15
2023-05-20T08:24:04.750Z,6.25
2023-05-20T08:26:31.308Z,5.00
2023-05-20T08:28:57.742Z,6.95
2023-05-20T08:31:24.220Z,6.18
2023-05-20T08:33:50.816Z,6.65
2023-05-20T08:36:19.367Z,7.35
2023-05-20T08:38:46.110Z,6.37
2023-05-20T08:41:12.536Z,6.05
2023-05-20T08:43:38.973Z,4.93
2023-05-20T08:46:06.569Z,7.60
2023-05-20T08:48:33.855Z,5.45
2023-05-20T08:51:03.233Z,4.53
2023-05-20T08:53:29.845Z,4.80
2023-05-20T08:56:01.384Z,5.40
2023-05-20T08:58:29.397Z,7.35
2023-05-20T09:00:56.425Z,6.47
2023-05-20T09:03:23.922Z,6.23
2023-05-20T09:05:50.339Z,6.68
2023-05-20T09:08:16.852Z,4.57
2023-05-20T09:10:43.364Z,9.93
2023-05-20T09:13:11.131Z,6.03
2023-05-20T09:15:39.002Z,5.13
2023-05-20T09:18:07.420Z,5.53
2023-05-20T09:20:37.188Z,7.97
2023-05-20T09:23:06.377Z,5.40
2023-05-20T09:25:33.611Z,5.28
2023-05-20T09:28:00.288Z,5.00
2023-05-20T09:30:26.956Z,7.40
2023-05-20T09:32:57.704Z,4.32
2023-05-20T09:35:26.125Z,4.15
2023-05-20T09:37:54.871Z,8.38
2023-05-20T09:40:29.095Z,4.10
2023-05-20T09:43:08.259Z,6.22
2023-05-20T09:45:35.050Z,3.90
2023-05-20T09:48:02.911Z,4.25
2023-05-20T09:50:30.405Z,4.10
2023-05-20T09:53:00.680Z,5.67
2023-05-20T09:55:27.388Z,4.15
2023-05-20T09:57:55.055Z,7.00
2023-05-20T10:00:21.731Z,3.67
2023-05-20T10:02:52.841Z,4.75
2023-05-20T10:05:22.538Z,5.23
2023-05-20T10:08:07.467Z,4.05
2023-05-20T10:10:50.403Z,8.57
2023-05-20T10:13:31.795Z,5.03
2023-05-20T10:16:27.021Z,4.85
2023-05-20T10:18:53.533Z,5.70
2023-05-20T10:21:25.085Z,6.50
2023-05-20T10:23:52.369Z,8.93
2023-05-20T10:26:19.373Z,5.45
2023-05-20T10:28:46.815Z,5.10
2023-05-20T10:31:23.594Z,5.73
2023-05-20T10:33:53.470Z,5.50
2023-05-20T10:36:27.983Z,7.82
2023-05-20T10:38:56.517Z,5.95
2023-05-20T10:41:29.454Z,4.43
2023-05-20T10:44:05.995Z,4.90
2023-05-20T10:46:48.644Z,7.53
2023-05-20T10:49:22.451Z,6.05
2023-05-20T10:51:51.537Z,4.88
2023-05-20T10:54:18.149Z,3.03
2023-05-20T10:56:52.539Z,10.00
2023-05-20T10:59:20.195Z,4.05
2023-05-20T11:01:47.532Z,4.60
2023-05-20T11:04:17.202Z,4.22
2023-05-20T11:06:51.880Z,4.40
2023-05-20T11:09:18.325Z,10.80
2023-05-20T11:11:44.779Z,5.55
2023-05-20T11:14:14.778Z,4.05
2023-05-20T11:16:42.400Z,5.30
2023-05-20T11:19:09.503Z,7.65
2023-05-20T11:21:43.338Z,5.03
2023-05-20T11:24:09.852Z,5.00
2023-05-20T11:26:36.869Z,3.67
2023-05-20T11:29:03.539Z,3.95
2023-05-20T11:31:30.553Z,3.35
2023-05-20T11:33:57.415Z,6.60
2023-05-20T11:36:27.854Z,5.55
2023-05-20T11:38:58.634Z,5.22
2023-05-20T11:41:26.065Z,4.75
2023-05-20T11:44:14.224Z,4.40
2023-05-20T11:46:42.503Z,6.80
2023-05-20T11:49:09.536Z,4.63
2023-05-20T11:51:38.095Z,5.60
2023-05-20T11:54:06.182Z,3.28
2023-05-20T11:56:41.391Z,4.78
2023-05-20T11:59:09.976Z,4.13
2023-05-20T12:01:40.980Z,4.97
2023-05-20T12:04:08.669Z,6.10
2023-05-20T12:06:39.824Z,8.73
2023-05-20T12:09:08.529Z,4.72
2023-05-20T12:11:40.966Z,7.57
2023-05-20T12:14:08.286Z,6.30
2023-05-20T12:16:35.956Z,7.40
2023-05-20T12:19:03.491Z,4.60
2023-05-20T12:21:31.280Z,4.07
2023-05-20T12:23:59.569Z,3.50
2023-05-20T12:26:27.860Z,5.05
2023-05-20T12:28:55.278Z,3.67
2023-05-20T12:31:21.873Z,3.80
2023-05-20T12:33:48.364Z,5.32
2023-05-20T12:36:15.381Z,5.93
2023-05-20T12:38:42.021Z,3.47
2023-05-20T12:41:08.679Z,5.43
2023-05-20T12:43:37.085Z,6.75
2023-05-20T12:46:04.073Z,5.22
2023-05-20T12:48:30.586Z,6.00
2023-05-20T12:50:57.057Z,6.35
2023-05-20T12:53:23.497Z,9.23
2023-05-20T12:55:50.008Z,7.97
2023-05-20T12:58:16.630Z,5.38
2023-05-20T13:00:43.109Z,4.00
2023-05-20T13:03:09.716Z,3.35
2023-05-20T13:05:36.315Z,3.63
2023-05-20T13:08:03.243Z,3.47
2023-05-20T13:10:29.783Z,6.70
2023-05-20T13:12:56.596Z,4.60
2023-05-20T13:15:23.076Z,6.35
2023-05-20T13:17:49.685Z,5.07
2023-05-20T13:20:17.765Z,4.50
2023-05-20T13:22:46.210Z,6.20
2023-05-20T13:25:12.655Z,3.83
2023-05-20T13:27:39.321Z,5.82
2023-05-20T13:30:06.865Z,7.28
2023-05-20T13:32:33.450Z,5.47
2023-05-20T13:35:00.060Z,9.38
2023-05-20T13:37:26.616Z,3.50
2023-05-20T13:39:53.064Z,6.60
2023-05-20T13:42:19.671Z,5.45
2023-05-20T13:44:46.615Z,7.22
2023-05-20T13:47:13.146Z,4.68
2023-05-20T13:49:39.650Z,4.17
2023-05-20T13:52:06.359Z,3.60
2023-05-20T13:54:32.785Z,4.15
2023-05-20T13:56:59.251Z,4.68
2023-05-20T13:59:25.744Z,4.13
2023-05-20T14:01:53.566Z,5.60
2023-05-20T14:04:20.156Z,5.10
2023-05-20T14:06:46.679Z,4.43
2023-05-20T14:09:13.111Z,4.95
2023-05-20T14:11:39.569Z,3.95
2023-05-20T14:14:06.350Z,4.43
2023-05-20T14:16:33.199Z,8.73
2023-05-20T14:18:59.749Z,4.85
2023-05-20T14:21:26.209Z,3.78
2023-05-20T14:23:52.762Z,4.35
2023-05-20T14:26:19.201Z,3.80
2023-05-20T14:28:45.715Z,5.50
2023-05-20T14:31:12.208Z,3.80
2023-05-20T14:33:38.664Z,5.45
2023-05-20T14:36:05.362Z,5.47
2023-05-20T14:38:31.814Z,4.13
2023-05-20T14:40:58.349Z,4.32
2023-05-20T14:43:24.897Z,6.03
2023-05-20T14:45:52.573Z,6.55
2023-05-20T14:48:19.150Z,3.90
2023-05-20T14:50:46.160Z,4.77
2023-05-20T14:53:13.683Z,6.80
2023-05-20T14:55:40.137Z,6.00
2023-05-20T14:58:06.650Z,4.53
2023-05-20T15:00:33.441Z,4.72
2023-05-20T15:03:00.276Z,3.70
2023-05-20T15:05:26.844Z,3.10
2023-05-20T15:07:53.429Z,4.43
2023-05-20T15:10:19.928Z,8.40
2023-05-20T15:12:46.404Z,6.88
2023-05-20T15:15:12.845Z,4.77
2023-05-20T15:17:39.336Z,5.95
2023-05-20T15:20:06.502Z,4.32
2023-05-20T15:22:32.986Z,4.65
2023-05-20T15:24:59.474Z,4.72
2023-05-20T15:27:26.028Z,7.97
2023-05-20T15:29:52.523Z,3.50
2023-05-20T15:32:19.976Z,4.43
2023-05-20T15:34:46.527Z,3.38
2023-05-20T15:37:13.028Z,7.28
2023-05-20T15:39:39.572Z,5.97
2023-05-20T15:42:06.564Z,6.75
2023-05-20T15:44:33.543Z,4.30
2023-05-20T15:47:00.013Z,6.53
2023-05-20T15:49:26.458Z,4.13
2023-05-20T15:52:11.946Z,5.50
2023-05-20T15:54:38.488Z,6.85
2023-05-20T15:57:05.486Z,4.22
2023-05-20T15:59:31.969Z,7.10
2023-05-20T16:01:58.608Z,10.80
2023-05-20T16:04:25.302Z,6.10
2023-05-20T16:06:51.864Z,7.03
2023-05-20T16:09:18.322Z,7.25
2023-05-20T16:11:44.774Z,5.38
2023-05-20T16:14:11.472Z,5.85
2023-05-20T16:16:38.173Z,8.57
2023-05-20T16:19:04.762Z,6.40
2023-05-20T16:21:31.288Z,9.02
2023-05-20T16:23:57.731Z,12.60
2023-05-20T16:26:24.768Z,7.22
2023-05-20T16:28:51.197Z,5.43
2023-05-20T16:31:17.662Z,5.93
2023-05-20T16:33:44.164Z,4.22
2023-05-20T16:36:12.094Z,5.85
2023-05-20T16:38:39.349Z,3.72
2023-05-20T16:41:05.829Z,4.07
2023-05-20T16:43:32.312Z,8.85
2023-05-20T16:45:59.050Z,5.97
2023-05-20T16:48:26.712Z,6.22
2023-05-20T16:50:53.206Z,5.78
2023-05-20T16:53:19.693Z,4.43
2023-05-20T16:55:47.117Z,7.65
2023-05-20T16:58:13.615Z,5.18
2023-05-20T17:00:40.102Z,5.20
2023-05-20T17:03:06.694Z,11.40
2023-05-20T17:05:33.151Z,5.37
2023-05-20T17:08:00.684Z,5.90
2023-05-20T17:10:28.898Z,4.40
2023-05-20T17:12:55.625Z,5.07
2023-05-20T17:15:23.501Z,4.68
2023-05-20T17:17:50.656Z,6.00
2023-05-20T17:20:17.245Z,8.73
2023-05-20T17:22:43.766Z,7.28
2023-05-20T17:25:10.396Z,4.57
2023-05-20T17:27:37.128Z,6.38
2023-05-20T17:30:03.727Z,7.43
2023-05-20T17:32:30.163Z,7.07
2023-05-20T17:34:56.632Z,5.50
2023-05-20T17:37:23.063Z,4.28
2023-05-20T17:39:49.506Z,6.35
2023-05-20T17:42:15.937Z,7.80
2023-05-20T17:44:42.374Z,4.70
2023-05-20T17:47:08.782Z,8.07
2023-05-20T17:49:35.354Z,5.22
2023-05-20T17:52:01.974Z,8.60
2023-05-20T17:54:28.401Z,5.10
2023-05-20T17:56:54.848Z,5.60
2023-05-20T17:59:21.445Z,6.13
2023-05-20T18:01:47.968Z,5.25
2023-05-20T18:04:14.497Z,5.95
2023-05-20T18:06:41.703Z,4.30
2023-05-20T18:09:08.239Z,4.72
2023-05-20T18:11:35.194Z,5.68
2023-05-20T18:14:02.298Z,6.05
2023-05-20T18:16:30.317Z,5.60
2023-05-20T18:18:57.450Z,5.23
2023-05-20T18:21:24.810Z,4.57
2023-05-20T18:23:51.807Z,4.18
2023-05-20T18:26:18.499Z,4.38
2023-05-20T18:28:45.056Z,5.03
2023-05-20T18:31:11.551Z,5.43
2023-05-20T18:33:38.095Z,5.30
2023-05-20T18:36:06.006Z,7.15
2023-05-20T18:38:32.978Z,4.43
2023-05-20T18:40:59.803Z,5.60
2023-05-20T18:43:26.590Z,3.77
2023-05-20T18:45:53.237Z,4.07
2023-05-20T18:48:26.666Z,7.18
2023-05-20T18:50:55.105Z,6.68
2023-05-20T18:53:21.664Z,5.50
2023-05-20T18:55:48.444Z,5.77
2023-05-20T18:58:15.493Z,5.32
2023-05-20T19:00:42.215Z,5.53
2023-05-20T19:03:08.820Z,6.32
2023-05-20T19:05:35.675Z,5.55
2023-05-20T19:08:04.536Z,6.10
2023-05-20T19:10:31.680Z,6.00
2023-05-20T19:12:58.223Z,5.32
2023-05-20T19:15:24.662Z,5.50
2023-05-20T19:17:52.146Z,4.22
2023-05-20T19:20:18.677Z,4.40
2023-05-20T19:22:45.139Z,5.82
2023-05-20T19:25:11.644Z,4.15
2023-05-20T19:27:38.105Z,7.13
2023-05-20T19:30:04.867Z,5.60
2023-05-20T19:32:31.384Z,5.70
2023-05-20T19:34:57.830Z,7.07
2023-05-20T19:37:24.422Z,7.65
2023-05-20T19:39:50.963Z,7.00
2023-05-20T19:42:17.496Z,4.70
2023-05-20T19:44:46.524Z,4.73
2023-05-20T19:47:13.250Z,7.38
2023-05-20T19:49:39.726Z,5.03
2023-05-20T19:52:06.921Z,5.72
2023-05-20T19:54:33.726Z,6.60
2023-05-20T19:57:00.211Z,5.10
2023-05-20T19:59:26.940Z,7.28
2023-05-20T20:01:53.713Z,4.03
2023-05-20T20:04:20.411Z,3.92
2023-05-20T20:06:48.020Z,4.30
2023-05-20T20:09:14.613Z,4.93
2023-05-20T20:11:41.037Z,5.70
2023-05-20T20:14:07.461Z,4.95
2023-05-20T20:16:34.685Z,5.47
2023-05-20T20:19:01.413Z,5.57
2023-05-20T20:21:27.944Z,4.67
2023-05-20T20:23:54.437Z,4.25
2023-05-20T20:26:25.678Z,4.70
2023-05-20T20:28:52.171Z,5.45
2023-05-20T20:31:18.629Z,8.25
2023-05-20T20:33:45.206Z,5.33
2023-05-20T20:36:11.700Z,5.07
2023-05-20T20:38:38.649Z,5.75
2023-05-20T20:41:05.151Z,5.22
2023-05-20T20:43:34.561Z,5.68
2023-05-20T20:46:00.992Z,6.43
2023-05-20T20:48:27.680Z,10.23
2023-05-20T20:50:54.733Z,5.43
2023-05-20T20:53:21.796Z,6.07
2023-05-20T20:55:48.411Z,5.22
2023-05-20T20:58:15.498Z,6.87
2023-05-20T21:00:44.942Z,7.22
2023-05-20T21:03:12.671Z,5.10
2023-05-20T21:05:39.613Z,6.03
2023-05-20T21:08:08.463Z,5.05
2023-05-20T21:10:36.977Z,4.83
2023-05-20T21:13:03.763Z,6.65
2023-05-20T21:15:30.269Z,6.10
2023-05-20T21:17:56.746Z,6.45
2023-05-20T21:20:23.314Z,5.60
2023-05-20T21:22:49.758Z,5.97
2023-05-20T21:25:16.314Z,4.93
2023-05-20T21:27:42.814Z,5.53
2023-05-20T21:30:10.760Z,6.75
2023-05-20T21:32:38.122Z,6.78
2023-05-20T21:35:05.024Z,7.87
2023-05-20T21:37:31.513Z,6.22
2023-05-20T21:39:57.977Z,7.72
2023-05-20T21:42:24.460Z,6.53
2023-05-20T21:44:51.416Z,6.03
2023-05-20T21:47:17.920Z,8.30
2023-05-20T21:49:44.573Z,5.10
2023-05-20T21:52:10.997Z,6.75
2023-05-20T21:54:37.443Z,5.35
2023-05-20T21:57:03.978Z,7.47
2023-05-20T21:59:30.431Z,5.93
2023-05-20T22:01:58.071Z,5.65
2023-05-20T22:04:25.095Z,6.47
2023-05-20T22:06:51.885Z,7.28
2023-05-20T22:09:18.389Z,6.38
2023-05-20T22:11:45.226Z,5.60
2023-05-20T22:14:16.048Z,6.15
2023-05-20T22:16:46.762Z,5.35
2023-05-20T22:19:17.032Z,5.90
2023-05-20T22:21:50.238Z,6.80
2023-05-20T22:24:17.760Z,6.50
2023-05-20T22:26:44.314Z,4.70
2023-05-20T22:29:10.742Z,6.20
2023-05-20T22:31:37.912Z,4.55
2023-05-20T22:34:05.434Z,4.63
2023-05-20T22:36:34.213Z,6.97
2023-05-20T22:39:02.230Z,4.45
2023-05-20T22:41:28.838Z,5.32
2023-05-20T22:43:56.836Z,7.75
2023-05-20T22:46:24.064Z,6.25
2023-05-20T22:48:52.920Z,6.37
2023-05-20T22:51:24.511Z,5.63
2023-05-20T22:53:51.494Z,9.02
2023-05-20T22:56:18.320Z,6.13
2023-05-20T22:58:45.696Z,6.10
2023-05-20T23:01:12.402Z,5.33
2023-05-20T23:03:39.844Z,5.28
2023-05-20T23:06:06.567Z,6.30
2023-05-20T23:08:32.997Z,5.90
2023-05-20T23:10:59.422Z,5.60
2023-05-20T23:13:26.129Z,4.43
2023-05-20T23:15:52.577Z,5.70
2023-05-20T23:18:19.085Z,6.07
2023-05-20T23:20:45.543Z,6.25
2023-05-20T23:23:12.082Z,6.70
2023-05-20T23:25:39.333Z,6.00
2023-05-20T23:28:06.294Z,4.10
2023-05-20T23:30:32.819Z,5.35
2023-05-20T23:32:59.625Z,6.18
2023-05-20T23:35:26.164Z,6.32
2023-05-20T23:37:52.825Z,5.53
2023-05-20T23:40:19.340Z,12.27
2023-05-20T23:42:45.931Z,7.18
2023-05-20T23:45:13.053Z,5.63
2023-05-20T23:47:39.560Z,6.13
2023-05-20T23:50:06.345Z,5.67
2023-05-20T23:52:32.845Z,5.68
2023-05-20T23:55:00.020Z,5.30
2023-05-20T23:57:26.481Z,5.88
2023-05-20T23:59:53.012Z,5.75
